sensor_id;sensor_type;location;lat;lon;timestamp;P1;durP1;ratioP1;P2;durP2;ratioP2
25123;SDS011;13104;51.030;4.686;2024-03-25T00:00:06;2.17;;;1.35;;
25123;SDS011;13104;51.030;4.686;2024-03-25T00:02:35;2.78;;;1.63;;
25123;SDS011;13104;51.030;4.686;2024-03-25T00:05:02;9.38;;;1.70;;
25123;SDS011;13104;51.030;4.686;2024-03-25T00:07:28;1.40;;;1.30;;
25123;SDS011;13104;51.030;4.686;2024-03-25T00:09:54;1.65;;;1.55;;
25123;SDS011;13104;51.030;4.686;2024-03-25T00:12:20;3.17;;;1.83;;
25123;SDS011;13104;51.030;4.686;2024-03-25T00:14:46;9.35;;;1.77;;
25123;SDS011;13104;51.030;4.686;2024-03-25T00:17:12;1.23;;;1.00;;
25123;SDS011;13104;51.030;4.686;2024-03-25T00:19:39;2.38;;;1.42;;
25123;SDS011;13104;51.030;4.686;2024-03-25T00:22:06;7.07;;;2.22;;
25123;SDS011;13104;51.030;4.686;2024-03-25T00:24:32;1.88;;;1.35;;
25123;SDS011;13104;51.030;4.686;2024-03-25T00:26:58;2.65;;;1.73;;
25123;SDS011;13104;51.030;4.686;2024-03-25T00:29:24;3.40;;;1.73;;
25123;SDS011;13104;51.030;4.686;2024-03-25T00:31:50;5.47;;;2.05;;
25123;SDS011;13104;51.030;4.686;2024-03-25T00:34:16;2.00;;;1.52;;
25123;SDS011;13104;51.030;4.686;2024-03-25T00:36:42;4.38;;;1.80;;
25123;SDS011;13104;51.030;4.686;2024-03-25T00:39:08;4.00;;;1.58;;
25123;SDS011;13104;51.030;4.686;2024-03-25T00:41:35;2.20;;;1.65;;
25123;SDS011;13104;51.030;4.686;2024-03-25T00:44:01;3.95;;;2.08;;
25123;SDS011;13104;51.030;4.686;2024-03-25T00:46:27;5.70;;;1.40;;
25123;SDS011;13104;51.030;4.686;2024-03-25T00:48:53;2.45;;;1.23;;
25123;SDS011;13104;51.030;4.686;2024-03-25T00:51:19;2.85;;;1.70;;
25123;SDS011;13104;51.030;4.686;2024-03-25T00:53:46;4.25;;;2.10;;
25123;SDS011;13104;51.030;4.686;2024-03-25T00:56:12;4.03;;;1.38;;
25123;SDS011;13104;51.030;4.686;2024-03-25T00:58:38;3.45;;;2.10;;
25123;SDS011;13104;51.030;4.686;2024-03-25T01:01:04;2.05;;;1.27;;
25123;SDS011;13104;51.030;4.686;2024-03-25T01:03:30;3.58;;;2.15;;
25123;SDS011;13104;51.030;4.686;2024-03-25T01:05:56;1.80;;;1.55;;
25123;SDS011;13104;51.030;4.686;2024-03-25T01:08:22;1.55;;;1.35;;
25123;SDS011;13104;51.030;4.686;2024-03-25T01:10:49;8.35;;;2.33;;
25123;SDS011;13104;51.030;4.686;2024-03-25T01:13:15;1.48;;;1.30;;
25123;SDS011;13104;51.030;4.686;2024-03-25T01:15:41;5.60;;;2.00;;
25123;SDS011;13104;51.030;4.686;2024-03-25T01:18:07;5.68;;;2.13;;
25123;SDS011;13104;51.030;4.686;2024-03-25T01:20:33;2.70;;;1.60;;
25123;SDS011;13104;51.030;4.686;2024-03-25T01:22:59;3.80;;;1.60;;
25123;SDS011;13104;51.030;4.686;2024-03-25T01:25:26;2.15;;;1.35;;
25123;SDS011;13104;51.030;4.686;2024-03-25T01:27:52;6.65;;;1.80;;
25123;SDS011;13104;51.030;4.686;2024-03-25T01:30:18;1.95;;;1.38;;
25123;SDS011;13104;51.030;4.686;2024-03-25T01:32:44;18.48;;;1.77;;
25123;SDS011;13104;51.030;4.686;2024-03-25T01:35:13;2.25;;;1.40;;
25123;SDS011;13104;51.030;4.686;2024-03-25T01:37:39;8.15;;;2.40;;
25123;SDS011;13104;51.030;4.686;2024-03-25T01:40:05;9.68;;;1.42;;
25123;SDS011;13104;51.030;4.686;2024-03-25T01:42:32;3.70;;;1.38;;
25123;SDS011;13104;51.030;4.686;2024-03-25T01:44:58;2.70;;;1.65;;
25123;SDS011;13104;51.030;4.686;2024-03-25T01:47:24;2.30;;;1.75;;
25123;SDS011;13104;51.030;4.686;2024-03-25T01:49:50;1.55;;;0.90;;
25123;SDS011;13104;51.030;4.686;2024-03-25T01:52:19;1.52;;;1.33;;
25123;SDS011;13104;51.030;4.686;2024-03-25T01:54:45;6.43;;;1.58;;
25123;SDS011;13104;51.030;4.686;2024-03-25T01:57:11;1.83;;;1.48;;
25123;SDS011;13104;51.030;4.686;2024-03-25T01:59:38;1.10;;;1.00;;
25123;SDS011;13104;51.030;4.686;2024-03-25T02:02:05;1.23;;;1.13;;
25123;SDS011;13104;51.030;4.686;2024-03-25T02:04:31;4.20;;;2.15;;
25123;SDS011;13104;51.030;4.686;2024-03-25T02:06:57;2.92;;;1.10;;
25123;SDS011;13104;51.030;4.686;2024-03-25T02:09:24;5.95;;;2.45;;
25123;SDS011;13104;51.030;4.686;2024-03-25T02:11:51;1.80;;;1.25;;
25123;SDS011;13104;51.030;4.686;2024-03-25T02:14:18;3.60;;;1.83;;
25123;SDS011;13104;51.030;4.686;2024-03-25T02:16:44;1.83;;;1.67;;
25123;SDS011;13104;51.030;4.686;2024-03-25T02:19:11;1.98;;;1.63;;
25123;SDS011;13104;51.030;4.686;2024-03-25T02:21:38;3.35;;;1.60;;
25123;SDS011;13104;51.030;4.686;2024-03-25T02:24:05;8.18;;;1.58;;
25123;SDS011;13104;51.030;4.686;2024-03-25T02:26:33;3.08;;;1.73;;
25123;SDS011;13104;51.030;4.686;2024-03-25T02:28:59;12.93;;;1.60;;
25123;SDS011;13104;51.030;4.686;2024-03-25T02:31:25;1.17;;;1.08;;
25123;SDS011;13104;51.030;4.686;2024-03-25T02:33:51;1.95;;;1.60;;
25123;SDS011;13104;51.030;4.686;2024-03-25T02:36:17;7.75;;;1.60;;
25123;SDS011;13104;51.030;4.686;2024-03-25T02:38:43;1.33;;;1.00;;
25123;SDS011;13104;51.030;4.686;2024-03-25T02:41:09;1.17;;;1.08;;
25123;SDS011;13104;51.030;4.686;2024-03-25T02:43:35;5.65;;;1.83;;
25123;SDS011;13104;51.030;4.686;2024-03-25T02:46:02;4.03;;;1.60;;
25123;SDS011;13104;51.030;4.686;2024-03-25T02:48:28;4.15;;;1.52;;
25123;SDS011;13104;51.030;4.686;2024-03-25T02:50:54;1.67;;;1.20;;
25123;SDS011;13104;51.030;4.686;2024-03-25T02:53:20;2.50;;;1.27;;
25123;SDS011;13104;51.030;4.686;2024-03-25T02:55:46;2.22;;;1.35;;
25123;SDS011;13104;51.030;4.686;2024-03-25T02:58:12;1.17;;;1.05;;
25123;SDS011;13104;51.030;4.686;2024-03-25T03:00:38;3.38;;;1.38;;
25123;SDS011;13104;51.030;4.686;2024-03-25T03:03:05;2.78;;;1.23;;
25123;SDS011;13104;51.030;4.686;2024-03-25T03:05:31;4.32;;;1.38;;
25123;SDS011;13104;51.030;4.686;2024-03-25T03:07:57;1.35;;;1.25;;
25123;SDS011;13104;51.030;4.686;2024-03-25T03:10:23;4.53;;;1.63;;
25123;SDS011;13104;51.030;4.686;2024-03-25T03:12:49;1.33;;;1.10;;
25123;SDS011;13104;51.030;4.686;2024-03-25T03:15:16;1.90;;;1.17;;
25123;SDS011;13104;51.030;4.686;2024-03-25T03:17:42;4.50;;;1.70;;
25123;SDS011;13104;51.030;4.686;2024-03-25T03:20:08;5.53;;;1.27;;
25123;SDS011;13104;51.030;4.686;2024-03-25T03:22:35;1.45;;;1.20;;
25123;SDS011;13104;51.030;4.686;2024-03-25T03:25:01;0.95;;;0.93;;
25123;SDS011;13104;51.030;4.686;2024-03-25T03:27:28;1.20;;;1.10;;
25123;SDS011;13104;51.030;4.686;2024-03-25T03:29:55;1.27;;;1.17;;
25123;SDS011;13104;51.030;4.686;2024-03-25T03:32:22;1.15;;;1.05;;
25123;SDS011;13104;51.030;4.686;2024-03-25T03:34:48;1.98;;;1.13;;
25123;SDS011;13104;51.030;4.686;2024-03-25T03:37:14;1.38;;;1.15;;
25123;SDS011;13104;51.030;4.686;2024-03-25T03:39:40;1.20;;;1.05;;
25123;SDS011;13104;51.030;4.686;2024-03-25T03:42:06;3.67;;;1.48;;
25123;SDS011;13104;51.030;4.686;2024-03-25T03:44:32;0.80;;;0.80;;
25123;SDS011;13104;51.030;4.686;2024-03-25T03:46:58;4.53;;;1.40;;
25123;SDS011;13104;51.030;4.686;2024-03-25T03:49:24;1.55;;;1.33;;
25123;SDS011;13104;51.030;4.686;2024-03-25T03:51:50;1.42;;;1.33;;
25123;SDS011;13104;51.030;4.686;2024-03-25T03:54:16;0.80;;;0.80;;
25123;SDS011;13104;51.030;4.686;2024-03-25T03:56:42;1.67;;;1.25;;
25123;SDS011;13104;51.030;4.686;2024-03-25T03:59:08;1.95;;;1.48;;
25123;SDS011;13104;51.030;4.686;2024-03-25T04:01:34;4.00;;;1.52;;
25123;SDS011;13104;51.030;4.686;2024-03-25T04:04:00;3.17;;;2.10;;
25123;SDS011;13104;51.030;4.686;2024-03-25T04:06:26;3.28;;;1.17;;
25123;SDS011;13104;51.030;4.686;2024-03-25T04:08:53;3.17;;;1.25;;
25123;SDS011;13104;51.030;4.686;2024-03-25T04:11:19;4.13;;;1.25;;
25123;SDS011;13104;51.030;4.686;2024-03-25T04:13:46;2.10;;;1.20;;
25123;SDS011;13104;51.030;4.686;2024-03-25T04:16:12;1.42;;;1.30;;
25123;SDS011;13104;51.030;4.686;2024-03-25T04:18:38;0.70;;;0.70;;
25123;SDS011;13104;51.030;4.686;2024-03-25T04:21:10;1.17;;;1.08;;
25123;SDS011;13104;51.030;4.686;2024-03-25T04:23:37;5.18;;;1.42;;
25123;SDS011;13104;51.030;4.686;2024-03-25T04:26:03;2.15;;;1.63;;
25123;SDS011;13104;51.030;4.686;2024-03-25T04:28:32;1.48;;;1.05;;
25123;SDS011;13104;51.030;4.686;2024-03-25T04:30:58;1.60;;;1.15;;
25123;SDS011;13104;51.030;4.686;2024-03-25T04:33:24;11.05;;;2.08;;
25123;SDS011;13104;51.030;4.686;2024-03-25T04:35:51;1.45;;;0.95;;
25123;SDS011;13104;51.030;4.686;2024-03-25T04:38:17;2.75;;;1.65;;
25123;SDS011;13104;51.030;4.686;2024-03-25T04:40:43;3.70;;;1.33;;
25123;SDS011;13104;51.030;4.686;2024-03-25T04:43:09;4.32;;;2.05;;
25123;SDS011;13104;51.030;4.686;2024-03-25T04:45:35;1.45;;;1.35;;
25123;SDS011;13104;51.030;4.686;2024-03-25T04:48:01;5.40;;;1.67;;
25123;SDS011;13104;51.030;4.686;2024-03-25T04:50:27;2.85;;;1.73;;
25123;SDS011;13104;51.030;4.686;2024-03-25T04:52:53;1.90;;;1.40;;
25123;SDS011;13104;51.030;4.686;2024-03-25T04:55:19;2.22;;;1.85;;
25123;SDS011;13104;51.030;4.686;2024-03-25T04:57:46;7.15;;;1.83;;
25123;SDS011;13104;51.030;4.686;2024-03-25T05:00:12;2.33;;;1.60;;
25123;SDS011;13104;51.030;4.686;2024-03-25T05:02:38;15.88;;;2.03;;
25123;SDS011;13104;51.030;4.686;2024-03-25T05:05:04;2.42;;;1.75;;
25123;SDS011;13104;51.030;4.686;2024-03-25T05:07:32;1.90;;;1.10;;
25123;SDS011;13104;51.030;4.686;2024-03-25T05:09:58;8.98;;;2.17;;
25123;SDS011;13104;51.030;4.686;2024-03-25T05:12:24;2.78;;;1.65;;
25123;SDS011;13104;51.030;4.686;2024-03-25T05:14:55;1.65;;;1.50;;
25123;SDS011;13104;51.030;4.686;2024-03-25T05:17:21;11.77;;;2.28;;
25123;SDS011;13104;51.030;4.686;2024-03-25T05:19:47;3.08;;;1.65;;
25123;SDS011;13104;51.030;4.686;2024-03-25T05:22:13;1.63;;;1.52;;
25123;SDS011;13104;51.030;4.686;2024-03-25T05:24:39;3.90;;;2.05;;
25123;SDS011;13104;51.030;4.686;2024-03-25T05:27:05;10.77;;;1.98;;
25123;SDS011;13104;51.030;4.686;2024-03-25T05:29:31;1.27;;;1.17;;
25123;SDS011;13104;51.030;4.686;2024-03-25T05:32:01;7.95;;;2.33;;
25123;SDS011;13104;51.030;4.686;2024-03-25T05:34:28;8.70;;;1.95;;
25123;SDS011;13104;51.030;4.686;2024-03-25T05:36:54;3.22;;;1.90;;
25123;SDS011;13104;51.030;4.686;2024-03-25T05:39:21;6.60;;;2.15;;
25123;SDS011;13104;51.030;4.686;2024-03-25T05:41:47;6.28;;;2.38;;
25123;SDS011;13104;51.030;4.686;2024-03-25T05:44:13;5.57;;;2.35;;
25123;SDS011;13104;51.030;4.686;2024-03-25T05:46:39;1.77;;;1.42;;
25123;SDS011;13104;51.030;4.686;2024-03-25T05:49:05;3.10;;;1.90;;
25123;SDS011;13104;51.030;4.686;2024-03-25T05:51:31;5.40;;;1.98;;
25123;SDS011;13104;51.030;4.686;2024-03-25T05:54:01;1.35;;;1.25;;
25123;SDS011;13104;51.030;4.686;2024-03-25T05:56:27;3.22;;;1.95;;
25123;SDS011;13104;51.030;4.686;2024-03-25T05:58:57;9.50;;;2.50;;
25123;SDS011;13104;51.030;4.686;2024-03-25T06:01:23;5.82;;;1.63;;
25123;SDS011;13104;51.030;4.686;2024-03-25T06:03:49;4.53;;;1.90;;
25123;SDS011;13104;51.030;4.686;2024-03-25T06:06:15;5.78;;;3.17;;
25123;SDS011;13104;51.030;4.686;2024-03-25T06:08:42;3.92;;;2.22;;
25123;SDS011;13104;51.030;4.686;2024-03-25T06:11:08;8.85;;;2.63;;
25123;SDS011;13104;51.030;4.686;2024-03-25T06:13:34;3.08;;;2.17;;
25123;SDS011;13104;51.030;4.686;2024-03-25T06:16:00;6.10;;;1.95;;
25123;SDS011;13104;51.030;4.686;2024-03-25T06:18:26;3.80;;;2.83;;
25123;SDS011;13104;51.030;4.686;2024-03-25T06:20:52;4.38;;;2.10;;
25123;SDS011;13104;51.030;4.686;2024-03-25T06:23:25;4.35;;;2.00;;
25123;SDS011;13104;51.030;4.686;2024-03-25T06:25:51;5.22;;;3.78;;
25123;SDS011;13104;51.030;4.686;2024-03-25T06:28:18;2.35;;;1.85;;
25123;SDS011;13104;51.030;4.686;2024-03-25T06:30:45;10.65;;;2.88;;
25123;SDS011;13104;51.030;4.686;2024-03-25T06:33:30;10.82;;;3.53;;
25123;SDS011;13104;51.030;4.686;2024-03-25T06:36:15;8.93;;;3.13;;
25123;SDS011;13104;51.030;4.686;2024-03-25T06:38:42;7.97;;;4.13;;
25123;SDS011;13104;51.030;4.686;2024-03-25T06:41:08;5.88;;;2.97;;
25123;SDS011;13104;51.030;4.686;2024-03-25T06:43:34;6.47;;;2.97;;
25123;SDS011;13104;51.030;4.686;2024-03-25T06:46:00;5.68;;;2.53;;
25123;SDS011;13104;51.030;4.686;2024-03-25T06:48:27;7.88;;;3.83;;
25123;SDS011;13104;51.030;4.686;2024-03-25T06:50:56;5.28;;;2.42;;
25123;SDS011;13104;51.030;4.686;2024-03-25T06:53:22;8.13;;;2.80;;
25123;SDS011;13104;51.030;4.686;2024-03-25T06:55:52;10.20;;;3.15;;
25123;SDS011;13104;51.030;4.686;2024-03-25T06:58:19;15.32;;;4.38;;
25123;SDS011;13104;51.030;4.686;2024-03-25T07:00:46;7.20;;;3.88;;
25123;SDS011;13104;51.030;4.686;2024-03-25T07:03:13;10.88;;;2.85;;
25123;SDS011;13104;51.030;4.686;2024-03-25T07:05:39;18.52;;;3.65;;
25123;SDS011;13104;51.030;4.686;2024-03-25T07:08:05;11.20;;;4.40;;
25123;SDS011;13104;51.030;4.686;2024-03-25T07:10:31;12.32;;;3.90;;
25123;SDS011;13104;51.030;4.686;2024-03-25T07:12:57;7.13;;;4.82;;
25123;SDS011;13104;51.030;4.686;2024-03-25T07:15:23;8.70;;;4.05;;
25123;SDS011;13104;51.030;4.686;2024-03-25T07:17:50;3.78;;;2.58;;
25123;SDS011;13104;51.030;4.686;2024-03-25T07:20:16;9.02;;;3.22;;
25123;SDS011;13104;51.030;4.686;2024-03-25T07:22:42;19.20;;;3.22;;
25123;SDS011;13104;51.030;4.686;2024-03-25T07:25:08;8.70;;;2.78;;
25123;SDS011;13104;51.030;4.686;2024-03-25T07:27:34;7.68;;;3.53;;
25123;SDS011;13104;51.030;4.686;2024-03-25T07:30:01;12.93;;;3.85;;
25123;SDS011;13104;51.030;4.686;2024-03-25T07:32:28;9.07;;;4.20;;
25123;SDS011;13104;51.030;4.686;2024-03-25T07:34:54;8.23;;;3.30;;
25123;SDS011;13104;51.030;4.686;2024-03-25T07:37:20;8.65;;;3.53;;
25123;SDS011;13104;51.030;4.686;2024-03-25T07:39:46;9.45;;;3.22;;
25123;SDS011;13104;51.030;4.686;2024-03-25T07:42:12;5.63;;;2.55;;
25123;SDS011;13104;51.030;4.686;2024-03-25T07:44:39;7.65;;;3.42;;
25123;SDS011;13104;51.030;4.686;2024-03-25T07:47:05;6.68;;;3.08;;
25123;SDS011;13104;51.030;4.686;2024-03-25T07:49:31;4.45;;;2.85;;
25123;SDS011;13104;51.030;4.686;2024-03-25T07:51:59;14.40;;;4.20;;
25123;SDS011;13104;51.030;4.686;2024-03-25T07:54:25;5.95;;;3.78;;
25123;SDS011;13104;51.030;4.686;2024-03-25T07:56:51;9.25;;;3.78;;
25123;SDS011;13104;51.030;4.686;2024-03-25T07:59:18;5.38;;;2.55;;
25123;SDS011;13104;51.030;4.686;2024-03-25T08:01:44;5.28;;;2.72;;
25123;SDS011;13104;51.030;4.686;2024-03-25T08:04:10;6.03;;;2.88;;
25123;SDS011;13104;51.030;4.686;2024-03-25T08:06:36;2.85;;;2.08;;
25123;SDS011;13104;51.030;4.686;2024-03-25T08:09:02;5.65;;;2.08;;
25123;SDS011;13104;51.030;4.686;2024-03-25T08:11:30;3.20;;;2.45;;
25123;SDS011;13104;51.030;4.686;2024-03-25T08:13:56;2.75;;;1.73;;
25123;SDS011;13104;51.030;4.686;2024-03-25T08:16:22;29.20;;;3.30;;
25123;SDS011;13104;51.030;4.686;2024-03-25T08:18:49;4.30;;;2.53;;
25123;SDS011;13104;51.030;4.686;2024-03-25T08:21:15;5.75;;;2.97;;
25123;SDS011;13104;51.030;4.686;2024-03-25T08:23:44;9.27;;;2.83;;
25123;SDS011;13104;51.030;4.686;2024-03-25T08:26:10;4.28;;;2.70;;
25123;SDS011;13104;51.030;4.686;2024-03-25T08:28:37;22.85;;;3.42;;
25123;SDS011;13104;51.030;4.686;2024-03-25T08:31:03;6.65;;;2.92;;
25123;SDS011;13104;51.030;4.686;2024-03-25T08:33:29;8.13;;;2.85;;
25123;SDS011;13104;51.030;4.686;2024-03-25T08:35:56;4.53;;;3.03;;
25123;SDS011;13104;51.030;4.686;2024-03-25T08:38:22;3.65;;;2.67;;
25123;SDS011;13104;51.030;4.686;2024-03-25T08:40:48;5.97;;;3.10;;
25123;SDS011;13104;51.030;4.686;2024-03-25T08:43:14;8.70;;;3.20;;
25123;SDS011;13104;51.030;4.686;2024-03-25T08:45:40;3.00;;;2.45;;
25123;SDS011;13104;51.030;4.686;2024-03-25T08:48:06;3.67;;;2.50;;
25123;SDS011;13104;51.030;4.686;2024-03-25T08:50:32;14.65;;;3.33;;
25123;SDS011;13104;51.030;4.686;2024-03-25T08:52:58;6.88;;;2.88;;
25123;SDS011;13104;51.030;4.686;2024-03-25T08:55:24;17.35;;;2.42;;
25123;SDS011;13104;51.030;4.686;2024-03-25T08:57:51;14.27;;;2.53;;
25123;SDS011;13104;51.030;4.686;2024-03-25T09:00:17;8.48;;;2.47;;
25123;SDS011;13104;51.030;4.686;2024-03-25T09:02:43;2.50;;;1.65;;
25123;SDS011;13104;51.030;4.686;2024-03-25T09:05:09;7.32;;;2.67;;
25123;SDS011;13104;51.030;4.686;2024-03-25T09:07:35;7.60;;;1.85;;
25123;SDS011;13104;51.030;4.686;2024-03-25T09:10:02;8.02;;;2.53;;
25123;SDS011;13104;51.030;4.686;2024-03-25T09:15:12;3.85;;;1.77;;
25123;SDS011;13104;51.030;4.686;2024-03-25T09:17:39;7.38;;;2.10;;
25123;SDS011;13104;51.030;4.686;2024-03-25T09:20:06;4.28;;;2.00;;
25123;SDS011;13104;51.030;4.686;2024-03-25T09:22:42;4.05;;;1.73;;
25123;SDS011;13104;51.030;4.686;2024-03-25T09:25:09;4.15;;;1.98;;
25123;SDS011;13104;51.030;4.686;2024-03-25T09:27:35;4.32;;;2.47;;
25123;SDS011;13104;51.030;4.686;2024-03-25T09:30:01;7.32;;;2.53;;
25123;SDS011;13104;51.030;4.686;2024-03-25T09:32:29;1.20;;;1.10;;
25123;SDS011;13104;51.030;4.686;2024-03-25T09:34:58;11.98;;;2.15;;
25123;SDS011;13104;51.030;4.686;2024-03-25T09:37:24;1.90;;;1.50;;
25123;SDS011;13104;51.030;4.686;2024-03-25T09:39:51;6.55;;;1.58;;
25123;SDS011;13104;51.030;4.686;2024-03-25T09:42:27;8.30;;;1.80;;
25123;SDS011;13104;51.030;4.686;2024-03-25T09:44:53;8.45;;;2.03;;
25123;SDS011;13104;51.030;4.686;2024-03-25T09:47:20;4.03;;;1.33;;
25123;SDS011;13104;51.030;4.686;2024-03-25T09:49:48;2.15;;;1.85;;
25123;SDS011;13104;51.030;4.686;2024-03-25T09:52:14;2.35;;;1.63;;
25123;SDS011;13104;51.030;4.686;2024-03-25T09:54:41;3.28;;;1.95;;
25123;SDS011;13104;51.030;4.686;2024-03-25T09:57:07;3.25;;;1.50;;
25123;SDS011;13104;51.030;4.686;2024-03-25T09:59:34;1.77;;;1.20;;
25123;SDS011;13104;51.030;4.686;2024-03-25T10:02:00;1.83;;;1.33;;
25123;SDS011;13104;51.030;4.686;2024-03-25T10:04:28;4.32;;;1.67;;
25123;SDS011;13104;51.030;4.686;2024-03-25T10:06:54;2.08;;;1.08;;
25123;SDS011;13104;51.030;4.686;2024-03-25T10:09:21;2.78;;;1.52;;
25123;SDS011;13104;51.030;4.686;2024-03-25T10:11:47;2.55;;;1.40;;
25123;SDS011;13104;51.030;4.686;2024-03-25T10:14:14;7.47;;;1.73;;
25123;SDS011;13104;51.030;4.686;2024-03-25T10:16:40;2.08;;;1.65;;
25123;SDS011;13104;51.030;4.686;2024-03-25T10:19:07;7.75;;;1.70;;
25123;SDS011;13104;51.030;4.686;2024-03-25T10:21:33;1.77;;;1.45;;
25123;SDS011;13104;51.030;4.686;2024-03-25T10:23:59;3.53;;;1.83;;
25123;SDS011;13104;51.030;4.686;2024-03-25T10:26:26;9.93;;;1.10;;
25123;SDS011;13104;51.030;4.686;2024-03-25T10:29:03;1.45;;;1.30;;
25123;SDS011;13104;51.030;4.686;2024-03-25T10:31:31;1.50;;;1.40;;
25123;SDS011;13104;51.030;4.686;2024-03-25T10:33:57;1.75;;;1.45;;
25123;SDS011;13104;51.030;4.686;2024-03-25T10:36:24;1.48;;;1.10;;
25123;SDS011;13104;51.030;4.686;2024-03-25T10:38:53;5.63;;;1.33;;
25123;SDS011;13104;51.030;4.686;2024-03-25T10:41:19;1.30;;;1.20;;
25123;SDS011;13104;51.030;4.686;2024-03-25T10:43:46;2.28;;;1.00;;
25123;SDS011;13104;51.030;4.686;2024-03-25T10:46:15;1.35;;;1.02;;
25123;SDS011;13104;51.030;4.686;2024-03-25T10:48:41;1.50;;;1.25;;
25123;SDS011;13104;51.030;4.686;2024-03-25T10:51:09;1.63;;;1.05;;
25123;SDS011;13104;51.030;4.686;2024-03-25T10:53:38;1.27;;;1.10;;
25123;SDS011;13104;51.030;4.686;2024-03-25T10:56:04;1.35;;;0.90;;
25123;SDS011;13104;51.030;4.686;2024-03-25T10:58:31;1.10;;;1.00;;
25123;SDS011;13104;51.030;4.686;2024-03-25T11:00:58;7.35;;;1.42;;
25123;SDS011;13104;51.030;4.686;2024-03-25T11:03:26;2.15;;;1.10;;
25123;SDS011;13104;51.030;4.686;2024-03-25T11:05:52;1.30;;;1.00;;
25123;SDS011;13104;51.030;4.686;2024-03-25T11:08:18;1.50;;;1.20;;
25123;SDS011;13104;51.030;4.686;2024-03-25T11:10:45;2.92;;;1.50;;
25123;SDS011;13104;51.030;4.686;2024-03-25T11:13:14;1.50;;;1.13;;
25123;SDS011;13104;51.030;4.686;2024-03-25T11:15:43;2.17;;;1.38;;
25123;SDS011;13104;51.030;4.686;2024-03-25T11:18:13;2.22;;;1.10;;
25123;SDS011;13104;51.030;4.686;2024-03-25T11:20:39;1.20;;;0.98;;
25123;SDS011;13104;51.030;4.686;2024-03-25T11:23:09;1.10;;;1.00;;
25123;SDS011;13104;51.030;4.686;2024-03-25T11:25:36;1.05;;;0.90;;
25123;SDS011;13104;51.030;4.686;2024-03-25T11:28:02;1.73;;;1.45;;
25123;SDS011;13104;51.030;4.686;2024-03-25T11:30:28;1.10;;;1.00;;
25123;SDS011;13104;51.030;4.686;2024-03-25T11:32:56;1.58;;;1.08;;
25123;SDS011;13104;51.030;4.686;2024-03-25T11:35:23;1.30;;;1.20;;
25123;SDS011;13104;51.030;4.686;2024-03-25T11:37:49;3.15;;;1.00;;
25123;SDS011;13104;51.030;4.686;2024-03-25T11:40:17;1.75;;;0.90;;
25123;SDS011;13104;51.030;4.686;2024-03-25T11:42:43;1.77;;;0.95;;
25123;SDS011;13104;51.030;4.686;2024-03-25T11:45:31;1.30;;;1.17;;
25123;SDS011;13104;51.030;4.686;2024-03-25T11:47:56;1.30;;;0.90;;
25123;SDS011;13104;51.030;4.686;2024-03-25T11:50:22;4.55;;;1.08;;
25123;SDS011;13104;51.030;4.686;2024-03-25T11:52:48;2.05;;;1.05;;
25123;SDS011;13104;51.030;4.686;2024-03-25T11:55:17;2.75;;;1.52;;
25123;SDS011;13104;51.030;4.686;2024-03-25T11:57:43;1.45;;;0.82;;
25123;SDS011;13104;51.030;4.686;2024-03-25T12:00:10;1.05;;;0.80;;
25123;SDS011;13104;51.030;4.686;2024-03-25T12:02:39;1.27;;;0.93;;
25123;SDS011;13104;51.030;4.686;2024-03-25T12:05:08;5.78;;;0.70;;
25123;SDS011;13104;51.030;4.686;2024-03-25T12:07:34;0.80;;;0.80;;
25123;SDS011;13104;51.030;4.686;2024-03-25T12:10:01;2.13;;;0.90;;
25123;SDS011;13104;51.030;4.686;2024-03-25T12:15:11;1.98;;;0.85;;
25123;SDS011;13104;51.030;4.686;2024-03-25T12:17:38;1.05;;;0.88;;
25123;SDS011;13104;51.030;4.686;2024-03-25T12:20:05;1.13;;;0.85;;
25123;SDS011;13104;51.030;4.686;2024-03-25T12:22:35;4.53;;;1.15;;
25123;SDS011;13104;51.030;4.686;2024-03-25T12:25:01;1.08;;;0.80;;
25123;SDS011;13104;51.030;4.686;2024-03-25T12:27:29;1.23;;;1.08;;
25123;SDS011;13104;51.030;4.686;2024-03-25T12:30:04;4.00;;;0.95;;
25123;SDS011;13104;51.030;4.686;2024-03-25T12:32:41;0.90;;;0.90;;
25123;SDS011;13104;51.030;4.686;2024-03-25T12:35:11;2.55;;;1.05;;
25123;SDS011;13104;51.030;4.686;2024-03-25T12:37:39;1.55;;;1.00;;
25123;SDS011;13104;51.030;4.686;2024-03-25T12:40:05;0.80;;;0.70;;
25123;SDS011;13104;51.030;4.686;2024-03-25T12:42:33;0.88;;;0.85;;
25123;SDS011;13104;51.030;4.686;2024-03-25T12:44:59;0.75;;;0.63;;
25123;SDS011;13104;51.030;4.686;2024-03-25T12:47:25;1.15;;;0.98;;
25123;SDS011;13104;51.030;4.686;2024-03-25T12:49:52;1.15;;;0.80;;
25123;SDS011;13104;51.030;4.686;2024-03-25T12:52:18;1.05;;;0.68;;
25123;SDS011;13104;51.030;4.686;2024-03-25T12:54:44;2.28;;;0.80;;
25123;SDS011;13104;51.030;4.686;2024-03-25T12:57:11;0.73;;;0.70;;
25123;SDS011;13104;51.030;4.686;2024-03-25T12:59:37;1.08;;;0.88;;
25123;SDS011;13104;51.030;4.686;2024-03-25T13:02:03;5.32;;;0.88;;
25123;SDS011;13104;51.030;4.686;2024-03-25T13:04:29;1.13;;;0.80;;
25123;SDS011;13104;51.030;4.686;2024-03-25T13:06:56;0.75;;;0.75;;
25123;SDS011;13104;51.030;4.686;2024-03-25T13:09:22;1.08;;;0.80;;
25123;SDS011;13104;51.030;4.686;2024-03-25T13:11:48;1.08;;;0.70;;
25123;SDS011;13104;51.030;4.686;2024-03-25T13:14:14;0.77;;;0.77;;
25123;SDS011;13104;51.030;4.686;2024-03-25T13:16:41;2.00;;;0.80;;
25123;SDS011;13104;51.030;4.686;2024-03-25T13:19:07;0.93;;;0.70;;
25123;SDS011;13104;51.030;4.686;2024-03-25T13:21:33;1.33;;;0.85;;
25123;SDS011;13104;51.030;4.686;2024-03-25T13:23:59;1.15;;;0.80;;
25123;SDS011;13104;51.030;4.686;2024-03-25T13:26:25;0.80;;;0.52;;
25123;SDS011;13104;51.030;4.686;2024-03-25T13:28:52;0.52;;;0.50;;
25123;SDS011;13104;51.030;4.686;2024-03-25T13:31:19;0.57;;;0.57;;
25123;SDS011;13104;51.030;4.686;2024-03-25T13:33:45;0.98;;;0.77;;
25123;SDS011;13104;51.030;4.686;2024-03-25T13:36:11;0.50;;;0.50;;
25123;SDS011;13104;51.030;4.686;2024-03-25T13:38:37;0.50;;;0.50;;
25123;SDS011;13104;51.030;4.686;2024-03-25T13:41:04;2.47;;;0.88;;
25123;SDS011;13104;51.030;4.686;2024-03-25T13:43:31;1.15;;;0.80;;
25123;SDS011;13104;51.030;4.686;2024-03-25T13:45:57;0.40;;;0.40;;
25123;SDS011;13104;51.030;4.686;2024-03-25T13:48:23;0.60;;;0.60;;
25123;SDS011;13104;51.030;4.686;2024-03-25T13:50:52;0.60;;;0.60;;
25123;SDS011;13104;51.030;4.686;2024-03-25T13:53:19;1.30;;;0.95;;
25123;SDS011;13104;51.030;4.686;2024-03-25T13:55:45;0.52;;;0.52;;
25123;SDS011;13104;51.030;4.686;2024-03-25T13:58:11;1.75;;;0.80;;
25123;SDS011;13104;51.030;4.686;2024-03-25T14:00:37;0.77;;;0.75;;
25123;SDS011;13104;51.030;4.686;2024-03-25T14:03:04;1.02;;;0.70;;
25123;SDS011;13104;51.030;4.686;2024-03-25T14:05:30;1.15;;;0.85;;
25123;SDS011;13104;51.030;4.686;2024-03-25T14:07:56;0.60;;;0.60;;
25123;SDS011;13104;51.030;4.686;2024-03-25T14:10:22;2.03;;;1.10;;
25123;SDS011;13104;51.030;4.686;2024-03-25T14:12:48;0.82;;;0.70;;
25123;SDS011;13104;51.030;4.686;2024-03-25T14:15:14;1.05;;;0.80;;
25123;SDS011;13104;51.030;4.686;2024-03-25T14:17:40;1.27;;;0.80;;
25123;SDS011;13104;51.030;4.686;2024-03-25T14:20:07;1.20;;;0.90;;
25123;SDS011;13104;51.030;4.686;2024-03-25T14:22:33;2.05;;;1.08;;
25123;SDS011;13104;51.030;4.686;2024-03-25T14:25:00;0.85;;;0.82;;
25123;SDS011;13104;51.030;4.686;2024-03-25T14:27:26;1.02;;;0.80;;
25123;SDS011;13104;51.030;4.686;2024-03-25T14:29:52;2.08;;;1.13;;
25123;SDS011;13104;51.030;4.686;2024-03-25T14:32:18;1.33;;;1.13;;
25123;SDS011;13104;51.030;4.686;2024-03-25T14:34:45;0.77;;;0.70;;
25123;SDS011;13104;51.030;4.686;2024-03-25T14:37:11;2.85;;;1.05;;
25123;SDS011;13104;51.030;4.686;2024-03-25T14:39:37;0.93;;;0.75;;
25123;SDS011;13104;51.030;4.686;2024-03-25T14:42:03;0.75;;;0.63;;
25123;SDS011;13104;51.030;4.686;2024-03-25T14:44:29;0.95;;;0.75;;
25123;SDS011;13104;51.030;4.686;2024-03-25T14:46:55;0.70;;;0.70;;
25123;SDS011;13104;51.030;4.686;2024-03-25T14:49:25;0.90;;;0.85;;